sensor_id;sensor_type;location;lat;lon;timestamp;pressure;altitude;pressure_sealevel;temperature;humidity
29121;BME280;16191;49.548;8.658;2023-01-16T00:00:04;99110.84;;;4.97;100.00
29121;BME280;16191;49.548;8.658;2023-01-16T00:02:31;99104.75;;;4.98;100.00
29121;BME280;16191;49.548;8.658;2023-01-16T00:04:59;99118.50;;;4.98;100.00
29121;BME280;16191;49.548;8.658;2023-01-16T00:07:26;99090.16;;;4.97;100.00
29121;BME280;16191;49.548;8.658;2023-01-16T00:09:52;99081.66;;;4.93;100.00
29121;BME280;16191;49.548;8.658;2023-01-16T00:12:19;99085.09;;;4.94;100.00
29121;BME280;16191;49.548;8.658;2023-01-16T00:14:45;99079.91;;;4.94;100.00
29121;BME280;16191;49.548;8.658;2023-01-16T00:17:12;99064.41;;;4.94;100.00
29121;BME280;16191;49.548;8.658;2023-01-16T00:19:39;99056.66;;;4.94;100.00
29121;BME280;16191;49.548;8.658;2023-01-16T00:22:05;99054.13;;;4.92;100.00
29121;BME280;16191;49.548;8.658;2023-01-16T00:24:32;99051.59;;;4.91;100.00
29121;BME280;16191;49.548;8.658;2023-01-16T00:26:59;99054.19;;;4.91;100.00
29121;BME280;16191;49.548;8.658;2023-01-16T00:29:25;99043.16;;;4.86;100.00
29121;BME280;16191;49.548;8.658;2023-01-16T00:31:52;99042.88;;;4.93;100.00
29121;BME280;16191;49.548;8.658;2023-01-16T00:34:19;99037.03;;;4.88;100.00
29121;BME280;16191;49.548;8.658;2023-01-16T00:36:46;99027.59;;;4.87;100.00
29121;BME280;16191;49.548;8.658;2023-01-16T00:39:13;99021.59;;;4.87;100.00
29121;BME280;16191;49.548;8.658;2023-01-16T00:41:40;99013.09;;;4.83;100.00
29121;BME280;16191;49.548;8.658;2023-01-16T00:44:06;99004.59;;;4.79;100.00
29121;BME280;16191;49.548;8.658;2023-01-16T00:46:33;99026.06;;;4.81;100.00
29121;BME280;16191;49.548;8.658;2023-01-16T00:48:59;98991.03;;;4.74;100.00
29121;BME280;16191;49.548;8.658;2023-01-16T00:51:26;98985.13;;;4.71;100.00
29121;BME280;16191;49.548;8.658;2023-01-16T00:53:53;98993.78;;;4.70;100.00
29121;BME280;16191;49.548;8.658;2023-01-16T00:56:19;98998.78;;;4.74;100.00
29121;BME280;16191;49.548;8.658;2023-01-16T00:59:04;98985.09;;;4.72;100.00
29121;BME280;16191;49.548;8.658;2023-01-16T01:01:48;98967.09;;;4.69;100.00
29121;BME280;16191;49.548;8.658;2023-01-16T01:04:32;98971.44;;;4.69;100.00
29121;BME280;16191;49.548;8.658;2023-01-16T01:07:02;98965.41;;;4.68;100.00
29121;BME280;16191;49.548;8.658;2023-01-16T01:09:28;98968.06;;;4.67;100.00
29121;BME280;16191;49.548;8.658;2023-01-16T01:11:59;98969.78;;;4.66;100.00
29121;BME280;16191;49.548;8.658;2023-01-16T01:14:26;98954.34;;;4.65;100.00
29121;BME280;16191;49.548;8.658;2023-01-16T01:16:53;98954.19;;;4.69;100.00
29121;BME280;16191;49.548;8.658;2023-01-16T01:19:19;98952.59;;;4.65;100.00
29121;BME280;16191;49.548;8.658;2023-01-16T01:22:06;98946.81;;;4.59;100.00
29121;BME280;16191;49.548;8.658;2023-01-16T01:24:53;98951.81;;;4.63;100.00
29121;BME280;16191;49.548;8.658;2023-01-16T01:27:39;98957.09;;;4.60;100.00
29121;BME280;16191;49.548;8.658;2023-01-16T01:30:26;98964.00;;;4.60;100.00
29121;BME280;16191;49.548;8.658;2023-01-16T01:33:13;98938.28;;;4.57;100.00
29121;BME280;16191;49.548;8.658;2023-01-16T01:35:59;98934.84;;;4.56;100.00
29121;BME280;16191;49.548;8.658;2023-01-16T01:38:26;98931.25;;;4.60;100.00
29121;BME280;16191;49.548;8.658;2023-01-16T01:40:53;98936.38;;;4.62;100.00
29121;BME280;16191;49.548;8.658;2023-01-16T01:43:19;98926.16;;;4.59;100.00
29121;BME280;16191;49.548;8.658;2023-01-16T01:45:50;98921.81;;;4.59;100.00
29121;BME280;16191;49.548;8.658;2023-01-16T01:48:28;98907.28;;;4.57;100.00
29121;BME280;16191;49.548;8.658;2023-01-16T01:51:24;98902.78;;;4.62;100.00
29121;BME280;16191;49.548;8.658;2023-01-16T01:54:03;98893.28;;;4.62;100.00
29121;BME280;16191;49.548;8.658;2023-01-16T01:56:49;98883.75;;;4.64;100.00
29121;BME280;16191;49.548;8.658;2023-01-16T01:59:20;98874.31;;;4.63;100.00
29121;BME280;16191;49.548;8.658;2023-01-16T02:01:49;98876.84;;;4.65;100.00
29121;BME280;16191;49.548;8.658;2023-01-16T02:04:19;98865.66;;;4.64;100.00
29121;BME280;16191;49.548;8.658;2023-01-16T02:06:57;98871.63;;;4.66;100.00
29121;BME280;16191;49.548;8.658;2023-01-16T02:09:26;98854.44;;;4.65;100.00
29121;BME280;16191;49.548;8.658;2023-01-16T02:11:56;98846.28;;;4.76;100.00
29121;BME280;16191;49.548;8.658;2023-01-16T02:14:26;98852.19;;;4.78;100.00
29121;BME280;16191;49.548;8.658;2023-01-16T02:17:15;98844.44;;;4.78;100.00
29121;BME280;16191;49.548;8.658;2023-01-16T02:20:14;98843.53;;;4.79;100.00
29121;BME280;16191;49.548;8.658;2023-01-16T02:23:13;98834.03;;;4.79;100.00
29121;BME280;16191;49.548;8.658;2023-01-16T02:26:06;98818.47;;;4.81;100.00
29121;BME280;16191;49.548;8.658;2023-01-16T02:29:07;98812.53;;;4.79;100.00
29121;BME280;16191;49.548;8.658;2023-01-16T02:42:17;98781.41;;;4.82;100.00
29121;BME280;16191;49.548;8.658;2023-01-16T02:45:00;98764.28;;;4.79;100.00
29121;BME280;16191;49.548;8.658;2023-01-16T02:50:51;98741.13;;;4.76;100.00
29121;BME280;16191;49.548;8.658;2023-01-16T02:53:22;98729.91;;;4.77;100.00
29121;BME280;16191;49.548;8.658;2023-01-16T02:55:59;98718.88;;;4.74;100.00
29121;BME280;16191;49.548;8.658;2023-01-16T02:58:31;98714.53;;;4.74;100.00
29121;BME280;16191;49.548;8.658;2023-01-16T03:00:59;98704.22;;;4.74;100.00
29121;BME280;16191;49.548;8.658;2023-01-16T03:03:43;98692.97;;;4.75;100.00
29121;BME280;16191;49.548;8.658;2023-01-16T03:11:37;98673.25;;;4.73;100.00
29121;BME280;16191;49.548;8.658;2023-01-16T03:14:19;98671.59;;;4.72;100.00
29121;BME280;16191;49.548;8.658;2023-01-16T03:17:21;98646.66;;;4.71;100.00
29121;BME280;16191;49.548;8.658;2023-01-16T03:22:52;98648.88;;;4.78;100.00
29121;BME280;16191;49.548;8.658;2023-01-16T03:28:12;98644.38;;;4.83;100.00
29121;BME280;16191;49.548;8.658;2023-01-16T03:30:59;98640.94;;;4.83;100.00
29121;BME280;16191;49.548;8.658;2023-01-16T03:33:44;98633.84;;;4.88;100.00
29121;BME280;16191;49.548;8.658;2023-01-16T03:36:18;98618.28;;;4.90;100.00
29121;BME280;16191;49.548;8.658;2023-01-16T03:38:48;98625.97;;;4.91;100.00
29121;BME280;16191;49.548;8.658;2023-01-16T03:41:19;98622.53;;;4.91;100.00
29121;BME280;16191;49.548;8.658;2023-01-16T03:43:49;98614.84;;;4.89;100.00
29121;BME280;16191;49.548;8.658;2023-01-16T03:46:45;98598.63;;;4.86;100.00
29121;BME280;16191;49.548;8.658;2023-01-16T03:49:20;98583.91;;;4.88;100.00
29121;BME280;16191;49.548;8.658;2023-01-16T03:51:51;98588.34;;;4.84;100.00
29121;BME280;16191;49.548;8.658;2023-01-16T03:54:50;98582.22;;;4.87;100.00
29121;BME280;16191;49.548;8.658;2023-01-16T03:57:31;98570.97;;;4.88;100.00
29121;BME280;16191;49.548;8.658;2023-01-16T04:00:00;98560.50;;;4.91;100.00
29121;BME280;16191;49.548;8.658;2023-01-16T04:02:56;98557.84;;;4.92;100.00
29121;BME280;16191;49.548;8.658;2023-01-16T04:05:31;98556.94;;;4.93;100.00
29121;BME280;16191;49.548;8.658;2023-01-16T04:08:09;98540.28;;;4.99;100.00
29121;BME280;16191;49.548;8.658;2023-01-16T04:10:40;98529.22;;;4.97;100.00
29121;BME280;16191;49.548;8.658;2023-01-16T04:13:08;98504.22;;;4.97;100.00
29121;BME280;16191;49.548;8.658;2023-01-16T04:15:41;98512.03;;;4.96;100.00
29121;BME280;16191;49.548;8.658;2023-01-16T04:18:09;98504.88;;;5.01;100.00
29121;BME280;16191;49.548;8.658;2023-01-16T04:20:42;98507.06;;;5.10;100.00
29121;BME280;16191;49.548;8.658;2023-01-16T04:23:11;98493.28;;;5.09;100.00
29121;BME280;16191;49.548;8.658;2023-01-16T04:25:38;98485.69;;;5.06;100.00
29121;BME280;16191;49.548;8.658;2023-01-16T04:28:05;98482.94;;;5.09;100.00
29121;BME280;16191;49.548;8.658;2023-01-16T04:30:31;98476.03;;;5.10;100.00
29121;BME280;16191;49.548;8.658;2023-01-16T04:33:01;98470.50;;;5.18;100.00
29121;BME280;16191;49.548;8.658;2023-01-16T04:35:28;98464.50;;;5.17;100.00
29121;BME280;16191;49.548;8.658;2023-01-16T04:37:55;98454.94;;;5.19;100.00
29121;BME280;16191;49.548;8.658;2023-01-16T04:40:21;98456.75;;;5.17;100.00
29121;BME280;16191;49.548;8.658;2023-01-16T04:42:48;98444.28;;;5.25;100.00
29121;BME280;16191;49.548;8.658;2023-01-16T04:45:15;98435.75;;;5.23;100.00
29121;BME280;16191;49.548;8.658;2023-01-16T04:47:46;98445.25;;;5.23;100.00
29121;BME280;16191;49.548;8.658;2023-01-16T04:50:14;98430.56;;;5.23;100.00
29121;BME280;16191;49.548;8.658;2023-01-16T04:52:42;98409.06;;;5.23;100.00
29121;BME280;16191;49.548;8.658;2023-01-16T04:55:10;98422.81;;;5.23;100.00
29121;BME280;16191;49.548;8.658;2023-01-16T04:57:36;98417.66;;;5.23;100.00
29121;BME280;16191;49.548;8.658;2023-01-16T05:00:05;98400.38;;;5.24;100.00
29121;BME280;16191;49.548;8.658;2023-01-16T05:02:32;98402.47;;;5.34;100.00
29121;BME280;16191;49.548;8.658;2023-01-16T05:04:59;98379.63;;;5.25;100.00
29121;BME280;16191;49.548;8.658;2023-01-16T05:07:26;98358.78;;;5.28;100.00
29121;BME280;16191;49.548;8.658;2023-01-16T05:09:54;98364.72;;;5.30;100.00
29121;BME280;16191;49.548;8.658;2023-01-16T05:12:20;98356.97;;;5.30;100.00
29121;BME280;16191;49.548;8.658;2023-01-16T05:14:47;98362.69;;;5.37;100.00
29121;BME280;16191;49.548;8.658;2023-01-16T05:17:13;98344.81;;;5.32;100.00
29121;BME280;16191;49.548;8.658;2023-01-16T05:19:40;98335.97;;;5.36;100.00
29121;BME280;16191;49.548;8.658;2023-01-16T05:22:07;98326.41;;;5.38;100.00
29121;BME280;16191;49.548;8.658;2023-01-16T05:24:33;98313.53;;;5.37;100.00
29121;BME280;16191;49.548;8.658;2023-01-16T05:27:00;98314.13;;;5.42;100.00
29121;BME280;16191;49.548;8.658;2023-01-16T05:29:27;98291.25;;;5.34;100.00
29121;BME280;16191;49.548;8.658;2023-01-16T05:31:53;98274.13;;;5.32;100.00
29121;BME280;16191;49.548;8.658;2023-01-16T05:34:20;98267.16;;;5.34;100.00
29121;BME280;16191;49.548;8.658;2023-01-16T05:36:46;98253.53;;;5.30;100.00
29121;BME280;16191;49.548;8.658;2023-01-16T05:39:13;98268.22;;;5.30;100.00
29121;BME280;16191;49.548;8.658;2023-01-16T05:41:40;98258.69;;;5.30;100.00
29121;BME280;16191;49.548;8.658;2023-01-16T05:44:06;98252.69;;;5.30;100.00
29121;BME280;16191;49.548;8.658;2023-01-16T05:46:33;98245.69;;;5.32;100.00
29121;BME280;16191;49.548;8.658;2023-01-16T05:49:00;98229.19;;;5.34;100.00
29121;BME280;16191;49.548;8.658;2023-01-16T05:51:27;98229.25;;;5.33;100.00
29121;BME280;16191;49.548;8.658;2023-01-16T05:53:53;98217.78;;;5.38;100.00
29121;BME280;16191;49.548;8.658;2023-01-16T05:56:22;98196.47;;;5.33;100.00
29121;BME280;16191;49.548;8.658;2023-01-16T05:58:48;98197.28;;;5.18;100.00
29121;BME280;16191;49.548;8.658;2023-01-16T06:01:15;98188.25;;;5.09;100.00
29121;BME280;16191;49.548;8.658;2023-01-16T06:03:42;98184.06;;;5.07;100.00
29121;BME280;16191;49.548;8.658;2023-01-16T06:06:09;98176.19;;;4.93;100.00
29121;BME280;16191;49.548;8.658;2023-01-16T06:08:35;98177.09;;;4.92;100.00
29121;BME280;16191;49.548;8.658;2023-01-16T06:11:02;98162.72;;;4.86;100.00
29121;BME280;16191;49.548;8.658;2023-01-16T06:13:28;98156.19;;;4.79;100.00
29121;BME280;16191;49.548;8.658;2023-01-16T06:15:55;98149.53;;;4.75;100.00
29121;BME280;16191;49.548;8.658;2023-01-16T06:18:22;98146.84;;;4.76;100.00
29121;BME280;16191;49.548;8.658;2023-01-16T06:20:49;98146.56;;;4.65;100.00
29121;BME280;16191;49.548;8.658;2023-01-16T06:23:16;98141.47;;;4.64;100.00
29121;BME280;16191;49.548;8.658;2023-01-16T06:25:42;98129.53;;;4.61;100.00
29121;BME280;16191;49.548;8.658;2023-01-16T06:28:09;98130.53;;;4.59;100.00
29121;BME280;16191;49.548;8.658;2023-01-16T06:30:35;98116.78;;;4.58;100.00
29121;BME280;16191;49.548;8.658;2023-01-16T06:33:02;98112.78;;;4.53;100.00
29121;BME280;16191;49.548;8.658;2023-01-16T06:35:29;98104.28;;;4.51;100.00
29121;BME280;16191;49.548;8.658;2023-01-16T06:37:56;98099.50;;;4.43;100.00
29121;BME280;16191;49.548;8.658;2023-01-16T06:40:22;98099.41;;;4.44;100.00
29121;BME280;16191;49.548;8.658;2023-01-16T06:42:49;98086.78;;;4.56;100.00
29121;BME280;16191;49.548;8.658;2023-01-16T06:45:16;98083.53;;;4.52;100.00
29121;BME280;16191;49.548;8.658;2023-01-16T06:47:42;98078.38;;;4.52;100.00
29121;BME280;16191;49.548;8.658;2023-01-16T06:50:09;98069.38;;;4.59;100.00
29121;BME280;16191;49.548;8.658;2023-01-16T06:52:36;98074.47;;;4.61;100.00
29121;BME280;16191;49.548;8.658;2023-01-16T06:55:05;98056.47;;;4.59;100.00
29121;BME280;16191;49.548;8.658;2023-01-16T06:57:32;98042.34;;;4.66;100.00
29121;BME280;16191;49.548;8.658;2023-01-16T07:00:00;98041.41;;;4.67;100.00
29121;BME280;16191;49.548;8.658;2023-01-16T07:02:27;98024.84;;;4.71;100.00
29121;BME280;16191;49.548;8.658;2023-01-16T07:04:53;98019.91;;;4.67;100.00
29121;BME280;16191;49.548;8.658;2023-01-16T07:07:20;98016.72;;;4.62;100.00
29121;BME280;16191;49.548;8.658;2023-01-16T07:09:47;98012.81;;;4.55;100.00
29121;BME280;16191;49.548;8.658;2023-01-16T07:12:13;98001.81;;;4.51;100.00
29121;BME280;16191;49.548;8.658;2023-01-16T07:14:40;97992.63;;;4.45;100.00
29121;BME280;16191;49.548;8.658;2023-01-16T07:17:25;97996.81;;;4.48;100.00
29121;BME280;16191;49.548;8.658;2023-01-16T07:20:11;97987.53;;;4.44;100.00
29121;BME280;16191;49.548;8.658;2023-01-16T07:22:57;97989.38;;;4.42;100.00
29121;BME280;16191;49.548;8.658;2023-01-16T07:25:32;97973.94;;;4.40;100.00
29121;BME280;16191;49.548;8.658;2023-01-16T07:28:01;97969.00;;;4.36;100.00
29121;BME280;16191;49.548;8.658;2023-01-16T07:30:28;97972.97;;;4.43;100.00
29121;BME280;16191;49.548;8.658;2023-01-16T07:32:55;97967.03;;;4.41;100.00
29121;BME280;16191;49.548;8.658;2023-01-16T07:35:22;97953.38;;;4.39;100.00
29121;BME280;16191;49.548;8.658;2023-01-16T07:37:48;97959.22;;;4.42;100.00
29121;BME280;16191;49.548;8.658;2023-01-16T07:40:17;97947.38;;;4.38;100.00
29121;BME280;16191;49.548;8.658;2023-01-16T07:42:44;97926.78;;;4.37;100.00
29121;BME280;16191;49.548;8.658;2023-01-16T07:45:10;97918.72;;;4.43;100.00
29121;BME280;16191;49.548;8.658;2023-01-16T07:47:37;97932.47;;;4.43;100.00
29121;BME280;16191;49.548;8.658;2023-01-16T07:50:04;97914.63;;;4.39;100.00
29121;BME280;16191;49.548;8.658;2023-01-16T07:52:31;97913.97;;;4.35;100.00
29121;BME280;16191;49.548;8.658;2023-01-16T07:54:58;97905.31;;;4.36;100.00
29121;BME280;16191;49.548;8.658;2023-01-16T07:57:24;97906.91;;;4.39;100.00
29121;BME280;16191;49.548;8.658;2023-01-16T07:59:52;97907.06;;;4.36;100.00
29121;BME280;16191;49.548;8.658;2023-01-16T08:02:19;97887.31;;;4.35;100.00
29121;BME280;16191;49.548;8.658;2023-01-16T08:04:46;97884.41;;;4.41;100.00
29121;BME280;16191;49.548;8.658;2023-01-16T08:07:13;97881.00;;;4.40;100.00
29121;BME280;16191;49.548;8.658;2023-01-16T08:09:40;97871.56;;;4.39;100.00
29121;BME280;16191;49.548;8.658;2023-01-16T08:12:06;97866.25;;;4.42;100.00
29121;BME280;16191;49.548;8.658;2023-01-16T08:14:33;97848.94;;;4.44;100.00
29121;BME280;16191;49.548;8.658;2023-01-16T08:16:59;97865.41;;;4.58;100.00
29121;BME280;16191;49.548;8.658;2023-01-16T08:19:26;97864.41;;;4.60;100.00
29121;BME280;16191;49.548;8.658;2023-01-16T08:21:52;97850.44;;;4.64;100.00
29121;BME280;16191;49.548;8.658;2023-01-16T08:24:19;97843.94;;;4.73;98.28
29121;BME280;16191;49.548;8.658;2023-01-16T08:26:46;97847.06;;;4.78;98.56
29121;BME280;16191;49.548;8.658;2023-01-16T08:29:12;97849.66;;;4.78;97.85
29121;BME280;16191;49.548;8.658;2023-01-16T08:31:39;97821.81;;;4.83;98.34
29121;BME280;16191;49.548;8.658;2023-01-16T08:34:06;97819.09;;;5.00;95.00
29121;BME280;16191;49.548;8.658;2023-01-16T08:36:32;97821.97;;;4.96;95.36
29121;BME280;16191;49.548;8.658;2023-01-16T08:38:59;97814.50;;;5.05;93.21
29121;BME280;16191;49.548;8.658;2023-01-16T08:41:26;97798.84;;;5.08;92.46
29121;BME280;16191;49.548;8.658;2023-01-16T08:44:12;97795.50;;;5.06;92.51
29121;BME280;16191;49.548;8.658;2023-01-16T08:47:04;97795.50;;;5.06;91.24
29121;BME280;16191;49.548;8.658;2023-01-16T08:49:50;97788.41;;;5.10;89.46
29121;BME280;16191;49.548;8.658;2023-01-16T08:52:35;97772.16;;;5.08;90.55
29121;BME280;16191;49.548;8.658;2023-01-16T08:55:04;97799.75;;;5.07;92.09
29121;BME280;16191;49.548;8.658;2023-01-16T08:57:30;97802.09;;;5.12;90.68
29121;BME280;16191;49.548;8.658;2023-01-16T08:59:57;97804.31;;;5.18;88.35
29121;BME280;16191;49.548;8.658;2023-01-16T09:02:25;97801.91;;;5.15;89.58
29121;BME280;16191;49.548;8.658;2023-01-16T09:04:53;97796.38;;;5.21;89.08
29121;BME280;16191;49.548;8.658;2023-01-16T09:07:21;97798.94;;;5.21;91.57
29121;BME280;16191;49.548;8.658;2023-01-16T09:09:48;97799.88;;;5.20;94.57
29121;BME280;16191;49.548;8.658;2023-01-16T09:12:14;97791.41;;;5.18;99.03
29121;BME280;16191;49.548;8.658;2023-01-16T09:15:00;97805.16;;;5.19;100.00
29121;BME280;16191;49.548;8.658;2023-01-16T09:17:27;97813.53;;;5.22;100.00
29121;BME280;16191;49.548;8.658;2023-01-16T09:19:54;97796.00;;;5.27;100.00
29121;BME280;16191;49.548;8.658;2023-01-16T09:22:21;97794.59;;;5.22;100.00
29121;BME280;16191;49.548;8.658;2023-01-16T09:24:48;97795.72;;;5.18;100.00
29121;BME280;16191;49.548;8.658;2023-01-16T09:27:14;97789.06;;;5.13;100.00
29121;BME280;16191;49.548;8.658;2023-01-16T09:29:41;97794.16;;;5.15;100.00
29121;BME280;16191;49.548;8.658;2023-01-16T09:32:08;97797.16;;;5.07;100.00
29121;BME280;16191;49.548;8.658;2023-01-16T09:34:36;97795.09;;;4.98;100.00
29121;BME280;16191;49.548;8.658;2023-01-16T09:37:07;97792.50;;;4.98;100.00
29121;BME280;16191;49.548;8.658;2023-01-16T09:39:34;97779.59;;;4.98;100.00
29121;BME280;16191;49.548;8.658;2023-01-16T09:45:02;97778.72;;;4.83;100.00
29121;BME280;16191;49.548;8.658;2023-01-16T09:47:31;97770.78;;;4.72;100.00
29121;BME280;16191;49.548;8.658;2023-01-16T09:50:11;97773.84;;;4.63;100.00
29121;BME280;16191;49.548;8.658;2023-01-16T09:52:39;97759.59;;;4.56;100.00
29121;BME280;16191;49.548;8.658;2023-01-16T09:55:31;97751.31;;;4.51;100.00
29121;BME280;16191;49.548;8.658;2023-01-16T09:58:20;97750.47;;;4.51;100.00
29121;BME280;16191;49.548;8.658;2023-01-16T10:01:20;97726.25;;;4.53;100.00
29121;BME280;16191;49.548;8.658;2023-01-16T10:03:50;97731.31;;;4.55;100.00
29121;BME280;16191;49.548;8.658;2023-01-16T10:06:24;97726.03;;;4.56;100.00
29121;BME280;16191;49.548;8.658;2023-01-16T10:09:19;97719.91;;;4.43;100.00
29121;BME280;16191;49.548;8.658;2023-01-16T10:11:59;97712.16;;;4.43;100.00
29121;BME280;16191;49.548;8.658;2023-01-16T10:14:56;97711.50;;;4.39;100.00
29121;BME280;16191;49.548;8.658;2023-01-16T10:18:05;97708.34;;;4.34;100.00
29121;BME280;16191;49.548;8.658;2023-01-16T10:20:50;97704.09;;;4.33;100.00
29121;BME280;16191;49.548;8.658;2023-01-16T10:23:39;97703.50;;;4.44;100.00
29121;BME280;16191;49.548;8.658;2023-01-16T10:26:17;97698.69;;;4.38;100.00
29121;BME280;16191;49.548;8.658;2023-01-16T10:29:18;97706.44;;;4.38;100.00
29121;BME280;16191;49.548;8.658;2023-01-16T10:32:12;97697.28;;;4.32;100.00
29121;BME280;16191;49.548;8.658;2023-01-16T10:34:53;97697.28;;;4.32;100.00
29121;BME280;16191;49.548;8.658;2023-01-16T10:37:22;97689.06;;;4.26;100.00
29121;BME280;16191;49.548;8.658;2023-01-16T10:39:50;97705.47;;;4.25;100.00
29121;BME280;16191;49.548;8.658;2023-01-16T10:42:21;97696.03;;;4.24;100.00
29121;BME280;16191;49.548;8.658;2023-01-16T10:45:19;97688.56;;;4.19;100.00
29121;BME280;16191;49.548;8.658;2023-01-16T10:48:11;97678.16;;;4.21;100.00
29121;BME280;16191;49.548;8.658;2023-01-16T10:50:57;97685.31;;;4.16;100.00
29121;BME280;16191;49.548;8.658;2023-01-16T10:53:24;97675.91;;;4.14;100.00
29121;BME280;16191;49.548;8.658;2023-01-16T10:55:52;97673.69;;;4.08;100.00
29121;BME280;16191;49.548;8.658;2023-01-16T10:58:32;97658.66;;;4.15;100.00
29121;BME280;16191;49.548;8.658;2023-01-16T11:01:06;97653.13;;;4.07;100.00
29121;BME280;16191;49.548;8.658;2023-01-16T11:03:52;97652.47;;;4.03;100.00
29121;BME280;16191;49.548;8.658;2023-01-16T11:06:25;97642.47;;;3.97;100.00
29121;BME280;16191;49.548;8.658;2023-01-16T11:09:00;97633.06;;;3.96;100.00
29121;BME280;16191;49.548;8.658;2023-01-16T11:11:28;97617.41;;;3.99;100.00
29121;BME280;16191;49.548;8.658;2023-01-16T11:14:31;97618.91;;;4.03;100.00
29121;BME280;16191;49.548;8.658;2023-01-16T11:17:32;97608.59;;;4.03;100.00
29121;BME280;16191;49.548;8.658;2023-01-16T11:25:27;97582.63;;;4.06;100.00
29121;BME280;16191;49.548;8.658;2023-01-16T11:28:01;97580.59;;;4.11;100.00
29121;BME280;16191;49.548;8.658;2023-01-16T11:30:36;97555.09;;;4.21;100.00
29121;BME280;16191;49.548;8.658;2023-01-16T11:33:05;97552.00;;;4.30;100.00
29121;BME280;16191;49.548;8.658;2023-01-16T11:35:44;97533.19;;;4.28;100.00
29121;BME280;16191;49.548;8.658;2023-01-16T11:38:15;97532.34;;;4.28;100.00
29121;BME280;16191;49.548;8.658;2023-01-16T11:40:46;97514.00;;;4.32;100.00
29121;BME280;16191;49.548;8.658;2023-01-16T11:43:16;97487.81;;;4.38;100.00
29121;BME280;16191;49.548;8.658;2023-01-16T11:46:06;97489.66;;;4.51;100.00
29121;BME280;16191;49.548;8.658;2023-01-16T11:48:43;97487.44;;;4.44;100.00
29121;BME280;16191;49.548;8.658;2023-01-16T11:51:27;97488.38;;;4.43;100.00
29121;BME280;16191;49.548;8.658;2023-01-16T11:53:55;97478.69;;;4.47;100.00
29121;BME280;16191;49.548;8.658;2023-01-16T11:56:48;97451.22;;;4.46;100.00
29121;BME280;16191;49.548;8.658;2023-01-16T12:02:13;97436.19;;;4.53;100.00
29121;BME280;16191;49.548;8.658;2023-01-16T12:08:14;97410.28;;;4.81;100.00
29121;BME280;16191;49.548;8.658;2023-01-16T12:11:25;97404.47;;;4.92;100.00
29121;BME280;16191;49.548;8.658;2023-01-16T12:13:59;97391.16;;;4.98;100.00
29121;BME280;16191;49.548;8.658;2023-01-16T12:17:10;97381.03;;;5.07;100.00
29121;BME280;16191;49.548;8.658;2023-01-16T12:20:02;97363.59;;;5.11;100.00
29121;BME280;16191;49.548;8.658;2023-01-16T12:22:43;97362.28;;;5.18;100.00
29121;BME280;16191;49.548;8.658;2023-01-16T12:36:42;97337.19;;;5.71;100.00
29121;BME280;16191;49.548;8.658;2023-01-16T12:45:26;97303.56;;;5.96;100.00
29121;BME280;16191;49.548;8.658;2023-01-16T12:59:16;97283.66;;;6.22;100.00
29121;BME280;16191;49.548;8.658;2023-01-16T13:01:47;97262.13;;;6.22;100.00
29121;BME280;16191;49.548;8.658;2023-01-16T13:04:21;97261.78;;;6.26;100.00
29121;BME280;16191;49.548;8.658;2023-01-16T13:06:55;97231.16;;;6.20;100.00
29121;BME280;16191;49.548;8.658;2023-01-16T13:09:26;97242.34;;;6.21;100.00
29121;BME280;16191;49.548;8.658;2023-01-16T13:12:01;97243.16;;;6.21;100.00
29121;BME280;16191;49.548;8.658;2023-01-16T13:14:53;97223.28;;;6.22;100.00
29121;BME280;16191;49.548;8.658;2023-01-16T13:17:24;97225.03;;;6.21;100.00
29121;BME280;16191;49.548;8.658;2023-01-16T13:19:59;97217.16;;;6.23;100.00
29121;BME280;16191;49.548;8.658;2023-01-16T13:22:33;97222.56;;;6.19;100.00
29121;BME280;16191;49.548;8.658;2023-01-16T13:25:07;97217.28;;;6.21;100.00
29121;BME280;16191;49.548;8.658;2023-01-16T13:27:44;97223.16;;;6.23;100.00
29121;BME280;16191;49.548;8.658;2023-01-16T13:30:16;97212.81;;;6.23;100.00
29121;BME280;16191;49.548;8.658;2023-01-16T13:32:49;97197.69;;;6.17;100.00
29121;BME280;16191;49.548;8.658;2023-01-16T13:36:10;97213.25;;;6.17;100.00
29121;BME280;16191;49.548;8.658;2023-01-16T13:41:33;97206.31;;;6.17;100.00
29121;BME280;16191;49.548;8.658;2023-01-16T13:47:04;97183.44;;;6.11;100.00
29121;BME280;16191;49.548;8.658;2023-01-16T13:49:32;97175.34;;;6.16;100.00
29121;BME280;16191;49.548;8.658;2023-01-16T13:52:01;97160.63;;;6.16;100.00
29121;BME280;16191;49.548;8.658;2023-01-16T13:54:47;97154.81;;;6.26;100.00
29121;BME280;16191;49.548;8.658;2023-01-16T13:57:17;97156.31;;;6.28;100.00
29121;BME280;16191;49.548;8.658;2023-01-16T13:59:59;97175.28;;;6.29;100.00
29121;BME280;16191;49.548;8.658;2023-01-16T14:08:11;97130.38;;;6.41;100.00
29121;BME280;16191;49.548;8.658;2023-01-16T14:13:33;97100.72;;;6.45;100.00
29121;BME280;16191;49.548;8.658;2023-01-16T14:16:25;97100.84;;;6.54;100.00
29121;BME280;16191;49.548;8.658;2023-01-16T14:19:01;97081.78;;;6.56;100.00
29121;BME280;16191;49.548;8.658;2023-01-16T14:24:09;97090.50;;;6.54;100.00
29121;BME280;16191;49.548;8.658;2023-01-16T14:30:03;97041.03;;;6.46;100.00
29121;BME280;16191;49.548;8.658;2023-01-16T14:32:18;97036.81;;;6.45;100.00
29121;BME280;16191;49.548;8.658;2023-01-16T14:34:58;97025.25;;;6.38;100.00
29121;BME280;16191;49.548;8.658;2023-01-16T14:37:29;97024.63;;;6.35;100.00
29121;BME280;16191;49.548;8.658;2023-01-16T14:40:03;97010.03;;;6.34;100.00
29121;BME280;16191;49.548;8.658;2023-01-16T14:42:54;96999.81;;;6.43;100.00
29121;BME280;16191;49.548;8.658;2023-01-16T14:52:36;96986.84;;;6.32;100.00
29121;BME280;16191;49.548;8.658;2023-01-16T14:55:32;96988.50;;;6.33;100.00
29121;BME280;16191;49.548;8.658;2023-01-16T14:58:01;96975.44;;;6.35;100.00
29121;BME280;16191;49.548;8.658;2023-01-16T15:00:34;96977.19;;;6.34;100.00
29121;BME280;16191;49.548;8.658;2023-01-16T15:03:10;96957.31;;;6.35;100.00
29121;BME280;16191;49.548;8.658;2023-01-16T15:05:55;96949.44;;;6.47;100.00
29121;BME280;16191;49.548;8.658;2023-01-16T15:08:30;96975.22;;;6.60;100.00